Time;durP1;ratioP1;P1;durP2;ratioP2;P2;SDS_P1;SDS_P2;PMS_P1;PMS_P2;Temp;Humidity;BMP_temperature;BMP_pressure;BME280_temperature;BME280_humidity;BME280_pressure;Samples;Min_cycle;Max_cycle;Signal;HPM_P1;HPM_P2
2022/01/24 00:00:16;;;;;;;5.10;4.80;;;5.10;99.90;;;;;;5075648;28;20657;-68
2022/01/24 00:02:43;;;;;;;5.17;4.87;;;5.10;99.90;;;;;;5076072;28;20166;-68
2022/01/24 00:05:10;;;;;;;5.30;4.90;;;5.10;99.90;;;;;;5076208;28;20491;-69
2022/01/24 00:07:35;;;;;;;5.37;4.97;;;5.10;99.90;;;;;;5075277;28;20201;-68
2022/01/24 00:10:08;;;;;;;5.63;5.23;;;5.10;99.90;;;;;;5075793;28;20185;-69
2022/01/24 00:12:49;;;;;;;5.20;4.90;;;5.00;99.90;;;;;;5075243;28;20158;-69
2022/01/24 00:17:48;;;;;;;5.27;4.87;;;5.00;99.90;;;;;;5074114;28;20679;-68
2022/01/24 00:28:25;;;;;;;5.90;5.37;;;5.00;99.90;;;;;;5075014;28;20204;-65
2022/01/24 00:30:51;;;;;;;5.13;4.73;;;5.00;99.90;;;;;;5074798;28;20178;-65
2022/01/24 00:33:19;;;;;;;5.67;5.17;;;5.00;99.90;;;;;;5074883;28;20250;-65
2022/01/24 00:35:45;;;;;;;5.37;4.97;;;5.00;99.90;;;;;;5074701;28;20717;-65
2022/01/24 00:38:11;;;;;;;5.50;5.00;;;5.00;99.90;;;;;;5074696;28;20181;-65
2022/01/24 00:40:40;;;;;;;5.50;5.00;;;5.00;99.90;;;;;;5074966;28;20177;-68
2022/01/24 00:43:28;;;;;;;5.27;4.90;;;5.00;99.90;;;;;;5074478;28;20174;-64
2022/01/24 00:56:07;;;;;;;5.50;5.10;;;5.00;99.90;;;;;;5074563;28;20281;-65
2022/01/24 00:58:33;;;;;;;4.70;4.40;;;5.00;99.90;;;;;;5074332;28;20170;-64
2022/01/24 01:00:59;;;;;;;5.30;4.90;;;5.00;99.90;;;;;;5074292;28;20178;-65
2022/01/24 01:03:25;;;;;;;5.20;4.80;;;5.00;99.90;;;;;;5074081;28;20169;-65
2022/01/24 01:06:11;;;;;;;5.20;4.80;;;5.00;99.90;;;;;;5074213;28;20281;-65
2022/01/24 01:19:40;;;;;;;4.93;4.63;;;5.00;99.90;;;;;;5074273;28;20169;-65
2022/01/24 01:22:06;;;;;;;5.10;4.70;;;5.10;99.90;;;;;;5073851;28;20181;-65
2022/01/24 01:24:37;;;;;;;5.20;4.80;;;5.10;99.90;;;;;;5073831;28;20178;-65
2022/01/24 01:27:13;;;;;;;4.90;4.60;;;5.10;99.90;;;;;;5073701;28;20589;-65
2022/01/24 01:29:51;;;;;;;5.27;4.87;;;5.10;99.90;;;;;;5073691;28;20157;-65
2022/01/24 01:53:31;;;;;;;4.83;4.43;;;5.00;99.90;;;;;;5073957;28;20220;-64
2022/01/24 01:55:57;;;;;;;4.80;4.50;;;5.00;99.90;;;;;;5073385;28;20251;-65
2022/01/24 01:58:23;;;;;;;4.60;4.30;;;5.00;99.90;;;;;;5073331;28;20585;-64
2022/01/24 02:00:54;;;;;;;4.73;4.43;;;5.00;99.90;;;;;;5073294;28;20185;-65
2022/01/24 02:03:20;;;;;;;4.90;4.60;;;5.00;99.90;;;;;;5073756;28;20514;-65
2022/01/24 02:05:46;;;;;;;4.70;4.40;;;5.00;99.90;;;;;;5073493;28;20602;-65
2022/01/24 02:08:12;;;;;;;4.60;4.30;;;5.00;99.90;;;;;;5073302;28;20177;-64
2022/01/24 02:10:42;;;;;;;4.80;4.50;;;5.00;99.90;;;;;;5073430;28;20539;-65
2022/01/24 02:13:08;;;;;;;4.43;4.13;;;5.00;99.90;;;;;;5073452;28;20158;-65
2022/01/24 02:15:59;;;;;;;5.00;4.60;;;5.00;99.90;;;;;;5073140;28;20174;-65
2022/01/24 02:26:11;;;;;;;5.17;4.67;;;5.00;99.90;;;;;;5073048;28;20220;-65
2022/01/24 02:28:59;;;;;;;4.83;4.43;;;4.90;99.90;;;;;;5073004;28;20174;-65
2022/01/24 02:34:05;;;;;;;4.90;4.60;;;5.00;99.90;;;;;;5073299;28;20709;-64
2022/01/24 02:36:31;;;;;;;5.93;4.97;;;5.00;99.90;;;;;;5073216;28;20246;-65
2022/01/24 02:49:29;;;;;;;4.90;4.53;;;4.90;99.90;;;;;;5076766;28;20202;-65
2022/01/24 02:52:12;;;;;;;5.20;4.70;;;4.90;99.90;;;;;;5076850;28;20174;-64
2022/01/24 02:54:39;;;;;;;5.07;4.77;;;4.90;99.90;;;;;;5076845;28;20150;-64
2022/01/24 02:57:07;;;;;;;5.23;4.90;;;5.00;99.90;;;;;;5076825;28;20205;-64
2022/01/24 02:59:33;;;;;;;5.73;5.23;;;5.00;99.90;;;;;;5076780;28;20277;-64
2022/01/24 03:01:59;;;;;;;6.00;5.50;;;5.00;99.90;;;;;;5076807;28;20188;-65
2022/01/24 03:04:25;;;;;;;5.87;5.43;;;4.90;99.90;;;;;;5076867;28;20260;-64
2022/01/24 03:06:51;;;;;;;5.37;4.97;;;5.00;99.90;;;;;;5074982;28;20217;-66
2022/01/24 03:09:17;;;;;;;5.97;5.50;;;5.00;99.90;;;;;;5076679;28;20227;-65
2022/01/24 03:14:31;;;;;;;5.80;5.40;;;5.00;99.90;;;;;;5076537;28;20168;-66
2022/01/24 03:16:57;;;;;;;5.67;5.27;;;5.00;99.90;;;;;;5076162;28;20201;-65
2022/01/24 03:19:23;;;;;;;5.60;5.20;;;5.00;99.90;;;;;;5076190;28;20178;-65
2022/01/24 03:21:49;;;;;;;5.80;5.30;;;5.00;99.90;;;;;;5076172;28;20201;-65
2022/01/24 03:24:15;;;;;;;5.63;5.23;;;5.00;99.90;;;;;;5076368;28;20634;-65
2022/01/24 03:26:42;;;;;;;5.70;5.30;;;5.00;99.90;;;;;;5075822;28;20213;-65
2022/01/24 03:29:09;;;;;;;6.00;5.50;;;5.00;99.90;;;;;;5075940;28;20222;-65
2022/01/24 03:31:36;;;;;;;5.70;5.30;;;5.00;99.90;;;;;;5076460;28;20169;-65
2022/01/24 03:34:02;;;;;;;6.10;5.60;;;5.00;99.90;;;;;;5075998;28;20176;-65
2022/01/24 03:36:28;;;;;;;5.83;5.43;;;5.00;99.90;;;;;;5075905;28;20200;-65
2022/01/24 03:38:53;;;;;;;6.13;5.60;;;5.00;99.90;;;;;;5075829;28;20620;-65
2022/01/24 03:41:19;;;;;;;7.03;5.50;;;5.00;99.90;;;;;;5076482;28;20166;-65
2022/01/24 03:43:45;;;;;;;5.70;5.30;;;5.00;99.90;;;;;;5076225;28;20185;-65
2022/01/24 03:46:26;;;;;;;5.03;4.73;;;5.00;99.90;;;;;;5075524;28;20296;-65
2022/01/24 03:49:08;;;;;;;5.90;5.50;;;5.00;99.90;;;;;;5074451;28;20181;-65
2022/01/24 03:51:34;;;;;;;5.87;5.37;;;5.00;99.90;;;;;;5074039;28;20594;-65
2022/01/24 03:54:01;;;;;;;5.40;5.03;;;5.00;99.90;;;;;;5075844;28;20178;-65
2022/01/24 03:56:27;;;;;;;5.30;5.00;;;5.00;99.90;;;;;;5075391;28;20756;-65
2022/01/24 03:58:53;;;;;;;5.60;5.20;;;5.00;99.90;;;;;;5075762;28;20217;-65
2022/01/24 04:01:19;;;;;;;5.27;4.90;;;5.00;99.90;;;;;;5075613;28;20198;-65
2022/01/24 04:03:45;;;;;;;5.77;5.33;;;5.00;99.90;;;;;;5075751;28;20592;-65
2022/01/24 04:06:11;;;;;;;5.70;5.30;;;5.00;99.90;;;;;;5075963;28;20267;-65
2022/01/24 04:08:36;;;;;;;5.77;5.37;;;5.00;99.90;;;;;;5076115;28;20182;-65
2022/01/24 04:11:09;;;;;;;5.50;5.00;;;5.00;99.90;;;;;;5075625;28;20185;-65
2022/01/24 04:13:39;;;;;;;5.13;4.83;;;5.00;99.90;;;;;;5075401;28;20629;-65
2022/01/24 04:18:41;;;;;;;5.40;5.10;;;5.00;99.90;;;;;;5075407;28;20189;-65
2022/01/24 04:23:49;;;;;;;5.43;4.97;;;5.00;99.90;;;;;;5075064;28;20219;-65
2022/01/24 04:26:14;;;;;;;5.53;5.13;;;4.90;99.90;;;;;;5074893;28;20216;-65
2022/01/24 04:28:40;;;;;;;6.33;5.80;;;4.90;99.90;;;;;;5073768;28;20617;-65
2022/01/24 04:31:06;;;;;;;6.83;5.70;;;4.90;99.90;;;;;;5074833;28;20178;-65
2022/01/24 04:33:32;;;;;;;6.07;5.60;;;4.90;99.90;;;;;;5074883;28;20253;-65
2022/01/24 04:35:58;;;;;;;5.63;5.23;;;4.90;99.90;;;;;;5074915;28;20229;-65
2022/01/24 04:38:24;;;;;;;5.97;5.47;;;4.90;99.90;;;;;;5075084;28;20182;-65
2022/01/24 04:40:55;;;;;;;5.60;5.20;;;4.90;99.90;;;;;;5074598;28;20182;-65
2022/01/24 04:46:16;;;;;;;5.87;5.37;;;4.90;99.90;;;;;;5075153;28;20719;-65
2022/01/24 04:56:39;;;;;;;6.87;5.60;;;4.90;99.90;;;;;;5083836;28;20205;-65
2022/01/24 04:59:06;;;;;;;6.13;5.63;;;4.90;99.90;;;;;;5074880;28;20177;-65
2022/01/24 05:01:32;;;;;;;6.00;5.53;;;4.90;99.90;;;;;;5074570;28;20260;-66
2022/01/24 05:03:58;;;;;;;6.20;5.70;;;4.90;99.90;;;;;;5073737;28;20606;-65
2022/01/24 05:06:24;;;;;;;6.40;5.90;;;4.90;99.90;;;;;;5074271;28;20214;-66
2022/01/24 05:08:49;;;;;;;5.97;5.47;;;4.90;99.90;;;;;;5074296;28;20257;-65
2022/01/24 05:11:24;;;;;;;6.40;5.90;;;4.90;99.90;;;;;;5074090;28;20170;-65
2022/01/24 05:24:28;;;;;;;6.57;5.97;;;4.90;99.90;;;;;;5073831;28;20178;-65
2022/01/24 05:26:54;;;;;;;6.30;5.80;;;4.90;99.90;;;;;;5073106;28;20693;-65
2022/01/24 05:29:20;;;;;;;6.30;5.80;;;4.90;99.90;;;;;;5072947;28;20177;-66
2022/01/24 05:31:46;;;;;;;6.63;6.03;;;4.90;99.90;;;;;;5073094;28;20185;-65
2022/01/24 05:34:12;;;;;;;7.00;6.30;;;4.90;99.90;;;;;;5073514;28;20525;-65
2022/01/24 05:36:37;;;;;;;7.20;6.50;;;4.80;99.90;;;;;;5073104;28;20240;-66
2022/01/24 05:39:04;;;;;;;6.37;5.87;;;4.80;99.90;;;;;;5073169;28;20177;-65
2022/01/24 05:41:30;;;;;;;6.53;5.93;;;4.80;99.90;;;;;;5073174;28;20185;-65
2022/01/24 05:43:55;;;;;;;6.43;5.93;;;4.80;99.90;;;;;;5073014;28;20588;-65
2022/01/24 05:46:21;;;;;;;6.40;5.80;;;4.80;99.90;;;;;;5072804;28;20210;-65
2022/01/24 05:48:47;;;;;;;6.30;5.67;;;4.80;99.90;;;;;;5072906;28;20178;-65
2022/01/24 05:51:13;;;;;;;7.13;6.43;;;4.80;99.90;;;;;;5071398;28;20185;-65
2022/01/24 05:53:39;;;;;;;7.00;6.40;;;4.80;99.90;;;;;;5072714;28;20170;-65
2022/01/24 05:56:04;;;;;;;6.80;6.17;;;4.80;99.90;;;;;;5072429;28;20670;-65
2022/01/24 05:58:30;;;;;;;6.67;6.10;;;4.80;99.90;;;;;;5072480;28;20174;-65
2022/01/24 06:00:56;;;;;;;7.20;6.60;;;4.80;99.90;;;;;;5072563;28;20579;-65
2022/01/24 06:03:21;;;;;;;7.13;6.53;;;4.80;99.90;;;;;;5072952;28;20299;-65
2022/01/24 06:05:47;;;;;;;7.47;6.73;;;4.80;99.90;;;;;;5072416;28;20250;-65
2022/01/24 06:08:13;;;;;;;7.10;6.40;;;4.80;99.90;;;;;;5072376;28;20231;-64
2022/01/24 06:10:39;;;;;;;6.80;6.10;;;4.80;99.90;;;;;;5072250;28;20184;-65
2022/01/24 06:13:08;;;;;;;7.20;6.50;;;4.80;99.90;;;;;;5072343;28;20244;-65
2022/01/24 06:15:34;;;;;;;7.00;6.30;;;4.80;99.90;;;;;;5069713;28;20203;-65
2022/01/24 06:18:00;;;;;;;6.40;5.87;;;4.70;99.90;;;;;;5072194;28;20360;-65
2022/01/24 06:20:26;;;;;;;6.50;6.00;;;4.70;99.90;;;;;;5072200;28;20235;-65
2022/01/24 06:22:51;;;;;;;6.73;6.13;;;4.70;99.90;;;;;;5072305;28;20158;-66
2022/01/24 06:25:23;;;;;;;6.27;5.77;;;4.80;99.90;;;;;;5072168;28;20596;-65
2022/01/24 06:27:50;;;;;;;7.43;6.73;;;4.80;99.90;;;;;;5030082;28;1213143;-65
2022/01/24 06:30:16;;;;;;;10.10;7.43;;;4.80;99.90;;;;;;5073271;28;20594;-65
2022/01/24 06:32:43;;;;;;;7.47;6.77;;;4.80;99.90;;;;;;5073316;28;20627;-65
2022/01/24 06:35:10;;;;;;;7.90;7.10;;;4.80;99.90;;;;;;5073027;28;20213;-64
2022/01/24 06:37:37;;;;;;;8.07;7.27;;;4.80;99.90;;;;;;5072915;28;20288;-65
2022/01/24 06:40:04;;;;;;;8.17;7.37;;;4.80;99.90;;;;;;5072912;28;20169;-65
2022/01/24 06:42:30;;;;;;;6.80;6.30;;;4.80;99.90;;;;;;5073183;28;20560;-68
2022/01/24 06:44:56;;;;;;;7.00;6.40;;;4.80;99.90;;;;;;5072952;28;20182;-68
2022/01/24 06:47:22;;;;;;;7.83;7.10;;;4.80;99.90;;;;;;5072850;28;20213;-68
2022/01/24 06:49:49;;;;;;;8.33;7.40;;;4.80;99.90;;;;;;5072855;28;20177;-68
2022/01/24 06:52:15;;;;;;;7.80;6.70;;;4.80;99.90;;;;;;5072829;28;20174;-68
2022/01/24 06:54:42;;;;;;;8.23;7.53;;;4.80;99.90;;;;;;5071457;28;20623;-68
2022/01/24 06:57:11;;;;;;;7.27;6.57;;;4.80;99.90;;;;;;5072610;28;20194;-68
2022/01/24 06:59:40;;;;;;;7.50;6.80;;;4.70;99.90;;;;;;5071679;28;20528;-68
2022/01/24 07:02:07;;;;;;;7.17;6.57;;;4.70;99.90;;;;;;5072709;28;20282;-68
2022/01/24 07:04:33;;;;;;;7.30;6.70;;;4.80;99.90;;;;;;5072673;28;20552;-68
2022/01/24 07:06:58;;;;;;;7.57;6.87;;;4.80;99.90;;;;;;5072742;28;20217;-68
2022/01/24 07:09:24;;;;;;;7.20;6.60;;;4.80;99.90;;;;;;5071392;28;20213;-68
2022/01/24 07:11:51;;;;;;;8.33;6.80;;;4.70;99.90;;;;;;5071356;28;20181;-68
2022/01/24 07:14:17;;;;;;;7.60;6.27;;;4.70;99.90;;;;;;5073210;28;20170;-69
2022/01/24 07:19:17;;;;;;;7.83;6.90;;;4.70;99.90;;;;;;5072719;28;20574;-68
2022/01/24 07:21:43;;;;;;;7.53;6.50;;;4.70;99.90;;;;;;5073044;28;20178;-68
2022/01/24 07:24:09;;;;;;;7.27;6.67;;;4.70;99.90;;;;;;5071326;28;20212;-68
2022/01/24 07:26:34;;;;;;;7.83;7.03;;;4.60;99.90;;;;;;5072673;28;20237;-68
2022/01/24 07:29:00;;;;;;;6.90;6.40;;;4.50;99.90;;;;;;5074812;28;20315;-68
2022/01/24 07:31:26;;;;;;;6.80;6.20;;;4.50;99.90;;;;;;5076047;28;20185;-69
2022/01/24 07:33:51;;;;;;;6.70;6.20;;;4.50;99.90;;;;;;5075968;28;20205;-69
2022/01/24 07:36:17;;;;;;;7.50;6.80;;;4.50;99.90;;;;;;5076135;28;20288;-68
2022/01/24 07:38:43;;;;;;;6.73;6.20;;;4.50;99.90;;;;;;5076164;28;20180;-68
2022/01/24 07:41:09;;;;;;;6.83;6.30;;;4.50;99.90;;;;;;5076392;28;20244;-69
2022/01/24 07:43:34;;;;;;;8.00;7.20;;;4.60;99.90;;;;;;5074512;28;20660;-69
2022/01/24 07:46:00;;;;;;;8.23;7.43;;;4.50;99.90;;;;;;5074328;28;20213;-68
2022/01/24 07:48:27;;;;;;;8.00;7.00;;;4.50;99.90;;;;;;5075992;28;20565;-69
2022/01/24 07:50:53;;;;;;;7.43;6.77;;;4.50;99.90;;;;;;5075591;28;20549;-69
2022/01/24 07:53:21;;;;;;;7.63;6.90;;;4.50;99.90;;;;;;5075720;28;20178;-68
2022/01/24 07:55:47;;;;;;;7.90;7.10;;;4.60;99.90;;;;;;5075728;28;20197;-68
2022/01/24 07:58:13;;;;;;;8.43;6.80;;;4.60;99.90;;;;;;5075866;28;20224;-67
2022/01/24 08:00:39;;;;;;;7.97;7.27;;;4.60;99.90;;;;;;5075722;28;20627;-67
2022/01/24 08:03:06;;;;;;;7.27;6.57;;;4.60;99.90;;;;;;5075939;28;20213;-67
2022/01/24 08:05:32;;;;;;;7.73;7.03;;;4.60;99.90;;;;;;5075314;28;20615;-67
2022/01/24 08:07:58;;;;;;;7.63;6.87;;;4.60;99.90;;;;;;5075544;28;20230;-67
2022/01/24 08:10:24;;;;;;;7.37;6.77;;;4.70;99.90;;;;;;5075408;28;20197;-67
2022/01/24 08:12:50;;;;;;;8.67;7.30;;;4.70;99.90;;;;;;5075473;28;20173;-66
2022/01/24 08:15:16;;;;;;;7.37;6.60;;;4.70;99.90;;;;;;5075763;28;20158;-67
2022/01/24 08:17:43;;;;;;;8.80;7.20;;;4.70;99.90;;;;;;5075047;28;20673;-68
2022/01/24 08:20:11;;;;;;;8.40;7.60;;;4.70;99.90;;;;;;5073744;28;20182;-67
2022/01/24 08:22:37;;;;;;;8.77;7.93;;;4.70;99.90;;;;;;5075352;28;20191;-68
2022/01/24 08:25:04;;;;;;;10.27;8.57;;;4.70;99.90;;;;;;5075325;28;20178;-67
2022/01/24 08:27:34;;;;;;;8.70;7.80;;;4.70;99.90;;;;;;5074800;28;20210;-67
2022/01/24 08:30:01;;;;;;;9.13;8.33;;;4.70;99.90;;;;;;5073682;28;20272;-67
2022/01/24 08:32:27;;;;;;;7.87;7.10;;;4.60;99.90;;;;;;5073612;28;20181;-68
2022/01/24 08:34:54;;;;;;;9.53;8.53;;;4.60;99.90;;;;;;5073531;28;20709;-68
2022/01/24 08:37:20;;;;;;;8.57;7.77;;;4.70;99.90;;;;;;5073446;28;20201;-68
2022/01/24 08:39:46;;;;;;;8.43;7.53;;;4.70;99.90;;;;;;5074156;28;20241;-68
2022/01/24 08:47:22;;;;;;;8.50;7.70;;;4.70;99.90;;;;;;5074939;28;20686;-67
2022/01/24 08:49:49;;;;;;;8.43;7.57;;;4.70;99.90;;;;;;5074743;28;20168;-68
2022/01/24 08:52:15;;;;;;;8.77;7.90;;;4.70;99.90;;;;;;5074522;28;20658;-68
2022/01/24 08:54:41;;;;;;;8.00;7.30;;;4.70;99.90;;;;;;5073138;28;20170;-68
2022/01/24 08:57:07;;;;;;;8.60;7.70;;;4.70;99.90;;;;;;5074733;28;20194;-67
2022/01/24 08:59:34;;;;;;;9.33;8.47;;;4.70;99.90;;;;;;5073011;28;20178;-68
2022/01/24 09:02:00;;;;;;;10.37;9.37;;;4.60;99.90;;;;;;5074177;28;20271;-68
2022/01/24 09:04:26;;;;;;;8.63;7.83;;;4.60;99.90;;;;;;5074260;28;20239;-67
2022/01/24 09:06:52;;;;;;;8.40;7.60;;;4.60;99.90;;;;;;5072822;28;20639;-68
2022/01/24 09:09:19;;;;;;;8.33;7.63;;;4.60;99.90;;;;;;5074133;28;20638;-67
2022/01/24 09:11:46;;;;;;;10.17;8.97;;;4.60;99.90;;;;;;5074123;28;20214;-68
2022/01/24 09:14:12;;;;;;;7.83;7.03;;;4.60;99.90;;;;;;5072777;28;20182;-68
2022/01/24 09:16:38;;;;;;;8.60;7.70;;;4.50;99.90;;;;;;5072688;28;20201;-67
2022/01/24 09:19:06;;;;;;;9.23;8.43;;;4.50;99.90;;;;;;5073883;28;20185;-67
2022/01/24 09:21:34;;;;;;;8.27;7.47;;;4.60;99.90;;;;;;5074198;28;20192;-68
2022/01/24 09:24:00;;;;;;;8.10;7.40;;;4.50;99.90;;;;;;5073819;28;20612;-68
2022/01/24 09:26:27;;;;;;;9.00;8.10;;;4.50;99.90;;;;;;5073542;28;20209;-67
2022/01/24 09:28:53;;;;;;;8.27;7.57;;;4.60;99.90;;;;;;5073683;28;20151;-67
2022/01/24 09:31:20;;;;;;;8.03;7.33;;;4.60;99.90;;;;;;5073741;28;20166;-68
2022/01/24 09:33:46;;;;;;;8.83;7.93;;;4.60;99.90;;;;;;5074001;28;20303;-68
2022/01/24 09:36:13;;;;;;;8.63;7.83;;;4.60;99.90;;;;;;5072295;28;20198;-67
2022/01/24 09:38:39;;;;;;;8.43;7.63;;;4.50;99.90;;;;;;5073630;28;20703;-67
2022/01/24 09:41:08;;;;;;;9.43;8.50;;;4.50;99.90;;;;;;5073850;28;20162;-67
2022/01/24 09:43:34;;;;;;;8.60;7.50;;;4.50;99.90;;;;;;5073763;28;20626;-68
2022/01/24 09:46:01;;;;;;;9.37;8.47;;;4.60;99.90;;;;;;5073634;28;20263;-67
2022/01/24 09:48:28;;;;;;;8.70;8.00;;;4.50;99.90;;;;;;5073787;28;20187;-68
2022/01/24 09:50:54;;;;;;;9.30;8.50;;;4.50;99.90;;;;;;5073399;28;20250;-67
2022/01/24 09:53:25;;;;;;;10.10;8.83;;;4.60;99.90;;;;;;5073927;28;20253;-68
2022/01/24 09:55:51;;;;;;;9.40;8.50;;;4.60;99.90;;;;;;5072156;28;20182;-68
2022/01/24 09:58:17;;;;;;;10.47;9.40;;;4.60;99.90;;;;;;5073299;28;20525;-68
2022/01/24 10:00:44;;;;;;;11.83;8.60;;;4.60;99.90;;;;;;5073518;28;20166;-68
2022/01/24 10:03:12;;;;;;;9.47;8.10;;;4.70;99.90;;;;;;5073263;28;20686;-68
2022/01/24 10:05:42;;;;;;;9.27;8.37;;;4.70;99.90;;;;;;5073242;28;20166;-68
2022/01/24 10:08:14;;;;;;;9.23;8.37;;;4.80;99.90;;;;;;5073350;28;20207;-68
2022/01/24 10:10:48;;;;;;;9.87;8.97;;;4.80;99.90;;;;;;5073542;28;20162;-68
2022/01/24 10:16:35;;;;;;;9.30;8.20;;;4.80;99.90;;;;;;5073165;28;20254;-68
2022/01/24 10:19:20;;;;;;;10.33;7.97;;;4.90;99.90;;;;;;5073094;28;20158;-68
2022/01/24 10:21:51;;;;;;;10.37;8.53;;;4.90;99.90;;;;;;5071741;28;20178;-68
2022/01/24 10:24:26;;;;;;;10.27;8.70;;;4.90;99.90;;;;;;5073105;28;20193;-68
2022/01/24 10:27:11;;;;;;;10.17;9.17;;;4.90;99.90;;;;;;5072742;28;20215;-68
2022/01/24 10:29:42;;;;;;;9.97;8.97;;;5.00;99.90;;;;;;5073320;28;20178;-68
2022/01/24 10:32:08;;;;;;;10.47;9.37;;;4.90;99.90;;;;;;5073028;28;20173;-68
2022/01/24 10:34:36;;;;;;;11.27;8.87;;;4.90;99.90;;;;;;5072023;28;20522;-68
2022/01/24 10:37:03;;;;;;;9.47;8.53;;;4.90;99.90;;;;;;5073504;28;20560;-68
2022/01/24 10:42:27;;;;;;;10.30;8.50;;;4.90;99.90;;;;;;5073811;28;20173;-68
2022/01/24 10:45:12;;;;;;;11.17;8.40;;;4.90;99.90;;;;;;5071952;28;20201;-68
2022/01/24 10:47:44;;;;;;;9.80;8.80;;;5.00;99.90;;;;;;5071481;28;20211;-68
2022/01/24 10:50:18;;;;;;;9.60;8.70;;;5.00;99.90;;;;;;5073467;28;20153;-68
2022/01/24 10:52:46;;;;;;;10.47;9.40;;;5.00;99.90;;;;;;5071551;28;20178;-68
2022/01/24 10:55:15;;;;;;;11.03;9.07;;;4.90;99.90;;;;;;5072696;28;20177;-68
2022/01/24 10:57:42;;;;;;;9.57;8.57;;;4.90;99.90;;;;;;5072427;28;20190;-68
2022/01/24 11:00:10;;;;;;;9.60;8.70;;;4.90;99.90;;;;;;5071747;28;20189;-68
2022/01/24 11:02:40;;;;;;;10.03;9.13;;;4.90;99.90;;;;;;5073981;28;20196;-68
2022/01/24 11:05:33;;;;;;;10.03;9.03;;;4.80;99.90;;;;;;5076695;28;20158;-68
2022/01/24 11:08:05;;;;;;;10.20;9.20;;;4.80;99.90;;;;;;5074548;28;20573;-68
2022/01/24 11:10:31;;;;;;;10.80;9.60;;;4.70;99.90;;;;;;5076013;28;20162;-69
2022/01/24 11:12:58;;;;;;;10.27;9.27;;;4.70;99.90;;;;;;5076227;28;20253;-68
2022/01/24 11:15:25;;;;;;;11.60;10.43;;;4.70;99.90;;;;;;5076577;28;20233;-64
2022/01/24 11:17:52;;;;;;;10.60;9.30;;;4.60;99.90;;;;;;5077233;28;20194;-65
2022/01/24 11:20:20;;;;;;;10.83;9.73;;;4.60;99.90;;;;;;5076336;28;20238;-66
2022/01/24 11:22:58;;;;;;;10.60;9.60;;;4.60;99.90;;;;;;5076243;28;20191;-65
2022/01/24 11:25:25;;;;;;;11.57;9.43;;;4.50;99.90;;;;;;5076125;28;20157;-65
2022/01/24 11:27:51;;;;;;;10.30;9.20;;;4.50;99.90;;;;;;5075437;28;20218;-64
2022/01/24 11:30:28;;;;;;;10.03;9.03;;;4.60;99.90;;;;;;5075554;28;20707;-64
2022/01/24 11:32:57;;;;;;;12.53;9.50;;;4.70;99.90;;;;;;5075584;28;20178;-65
2022/01/24 11:35:41;;;;;;;10.13;8.93;;;4.70;99.90;;;;;;5075797;28;20253;-69
2022/01/24 11:38:27;;;;;;;9.97;9.03;;;4.70;99.90;;;;;;5076269;28;20146;-70
2022/01/24 11:41:01;;;;;;;10.27;9.27;;;4.70;99.90;;;;;;5076983;28;20207;-64
2022/01/24 11:43:36;;;;;;;10.23;8.97;;;4.80;99.90;;;;;;5075858;28;20158;-65
2022/01/24 11:46:07;;;;;;;10.10;9.10;;;4.80;99.90;;;;;;5075418;28;20251;-65
2022/01/24 11:48:36;;;;;;;10.73;9.27;;;4.90;99.90;;;;;;5075850;28;20555;-65
2022/01/24 11:51:10;;;;;;;11.00;9.53;;;4.90;99.90;;;;;;5073969;28;20257;-64
2022/01/24 11:53:45;;;;;;;9.67;8.67;;;5.00;99.90;;;;;;5073994;28;20174;-65
2022/01/24 11:56:28;;;;;;;10.20;9.00;;;5.00;99.90;;;;;;5075244;28;20190;-65
2022/01/24 11:59:23;;;;;;;9.43;8.53;;;5.00;99.90;;;;;;5075629;28;20220;-65
2022/01/24 12:02:13;;;;;;;11.00;9.20;;;5.00;99.90;;;;;;5075463;28;20694;-64
2022/01/24 12:05:13;;;;;;;9.63;8.67;;;5.10;99.90;;;;;;5075615;28;20220;-64
2022/01/24 12:07:46;;;;;;;9.10;8.20;;;5.10;99.90;;;;;;5075652;28;20561;-64
2022/01/24 12:10:33;;;;;;;9.70;8.80;;;5.10;99.90;;;;;;5075151;28;20170;-65
2022/01/24 12:13:02;;;;;;;9.17;8.27;;;5.10;99.90;;;;;;5074884;28;20241;-65
2022/01/24 12:15:36;;;;;;;9.67;8.63;;;5.10;99.90;;;;;;5075152;28;20661;-65
2022/01/24 12:18:06;;;;;;;9.13;8.10;;;5.10;99.90;;;;;;5074926;28;20197;-65
2022/01/24 12:20:31;;;;;;;9.17;8.23;;;5.10;99.90;;;;;;5075034;28;20223;-65
2022/01/24 12:23:28;;;;;;;9.80;8.60;;;5.10;99.90;;;;;;5074822;28;20166;-65
2022/01/24 12:26:05;;;;;;;9.57;8.67;;;5.10;99.90;;;;;;5074175;28;20186;-66
2022/01/24 12:28:46;;;;;;;8.80;7.90;;;5.10;99.90;;;;;;5074502;28;20174;-64
2022/01/24 12:31:30;;;;;;;8.33;7.63;;;5.10;99.90;;;;;;5074002;28;20170;-64
2022/01/24 12:34:01;;;;;;;10.73;8.60;;;5.00;99.90;;;;;;5074747;28;20166;-65
2022/01/24 12:36:46;;;;;;;8.97;8.07;;;5.00;99.90;;;;;;5074507;28;20567;-64
2022/01/24 12:39:16;;;;;;;8.97;7.80;;;5.00;99.90;;;;;;5074850;28;20154;-65
2022/01/24 12:41:51;;;;;;;10.67;8.13;;;5.10;99.90;;;;;;5073491;28;20174;-65
2022/01/24 12:47:23;;;;;;;9.30;8.40;;;5.00;99.90;;;;;;5083423;28;20367;-65
2022/01/24 12:49:51;;;;;;;9.63;7.97;;;5.10;99.90;;;;;;5075103;28;20598;-64
2022/01/24 12:52:19;;;;;;;8.60;7.70;;;5.10;99.90;;;;;;5074700;28;20174;-65
2022/01/24 12:54:49;;;;;;;11.23;9.33;;;5.10;99.90;;;;;;5074446;28;20169;-65
2022/01/24 12:57:18;;;;;;;10.13;8.60;;;5.00;99.90;;;;;;5074207;28;20276;-64
2022/01/24 12:59:54;;;;;;;9.23;8.30;;;4.90;99.90;;;;;;5074549;28;20563;-65
2022/01/24 13:02:31;;;;;;;10.10;8.90;;;4.90;99.90;;;;;;5074384;28;20165;-65
2022/01/24 13:05:07;;;;;;;9.17;8.37;;;4.90;99.90;;;;;;5074269;28;20537;-65
2022/01/24 13:07:33;;;;;;;10.37;9.37;;;5.00;99.90;;;;;;5074990;28;20206;-65
2022/01/24 13:10:21;;;;;;;9.43;8.53;;;5.00;99.90;;;;;;5076062;28;20228;-65
2022/01/24 13:13:00;;;;;;;10.33;8.90;;;5.00;99.90;;;;;;5074669;28;20241;-65
2022/01/24 13:23:28;;;;;;;9.97;8.83;;;5.00;99.90;;;;;;5073538;28;20185;-64
2022/01/24 13:25:54;;;;;;;9.90;8.90;;;5.00;99.90;;;;;;5072605;28;20178;-65
2022/01/24 13:28:20;;;;;;;9.23;8.27;;;5.00;99.90;;;;;;5073236;28;20630;-65
2022/01/24 13:30:48;;;;;;;8.00;7.30;;;5.10;99.90;;;;;;5071796;28;20178;-64
2022/01/24 13:33:20;;;;;;;10.77;8.13;;;5.10;99.90;;;;;;5073048;28;20686;-64
2022/01/24 13:35:51;;;;;;;8.90;8.10;;;5.10;99.90;;;;;;5073223;28;20158;-64
2022/01/24 13:38:28;;;;;;;9.23;8.20;;;5.10;99.90;;;;;;5073422;28;20162;-64
2022/01/24 13:40:58;;;;;;;10.10;8.87;;;5.00;99.90;;;;;;5073021;28;20606;-64
2022/01/24 13:43:53;;;;;;;9.70;8.70;;;5.00;99.90;;;;;;5073308;28;20592;-64
2022/01/24 13:46:28;;;;;;;10.20;9.17;;;4.90;99.90;;;;;;5072536;28;20217;-64
2022/01/24 13:49:00;;;;;;;9.40;8.50;;;4.80;99.90;;;;;;5073168;28;20637;-64
2022/01/24 13:51:49;;;;;;;9.90;8.93;;;4.70;99.90;;;;;;5073441;28;20175;-64
2022/01/24 13:54:21;;;;;;;9.67;8.70;;;4.70;99.90;;;;;;5073558;28;20269;-64
2022/01/24 13:56:50;;;;;;;11.87;9.57;;;4.60;99.90;;;;;;5072843;28;20197;-66
2022/01/24 13:59:25;;;;;;;11.40;9.73;;;4.60;99.90;;;;;;5071563;28;20228;-67
2022/01/24 14:01:54;;;;;;;12.20;9.23;;;4.60;99.90;;;;;;5072833;28;20260;-67
2022/01/24 14:04:46;;;;;;;9.60;8.70;;;4.50;99.90;;;;;;5071626;28;20563;-67
2022/01/24 14:07:33;;;;;;;11.93;9.53;;;4.60;99.90;;;;;;5072386;28;20241;-68
2022/01/24 14:10:11;;;;;;;10.50;8.97;;;4.60;99.90;;;;;;5071530;28;20169;-67
2022/01/24 14:12:48;;;;;;;10.13;9.13;;;4.60;99.90;;;;;;5072778;28;20154;-67
2022/01/24 14:15:29;;;;;;;9.80;8.83;;;4.60;99.90;;;;;;5073294;28;20237;-64
2022/01/24 14:20:53;;;;;;;12.07;9.87;;;4.60;99.90;;;;;;5073301;28;20684;-64
2022/01/24 14:23:27;;;;;;;10.47;9.33;;;4.60;99.90;;;;;;5072893;28;20612;-64
2022/01/24 14:25:54;;;;;;;11.77;9.93;;;4.50;99.90;;;;;;5072814;28;20203;-65
2022/01/24 14:28:22;;;;;;;9.70;8.70;;;4.50;99.90;;;;;;5072888;28;20527;-64
2022/01/24 14:30:49;;;;;;;9.93;8.93;;;4.50;99.90;;;;;;5071235;28;20173;-64
2022/01/24 14:33:19;;;;;;;10.30;9.23;;;4.60;99.90;;;;;;5071442;28;20174;-64
2022/01/24 14:36:08;;;;;;;10.20;9.30;;;4.60;99.90;;;;;;5071321;28;20181;-64
2022/01/24 14:38:40;;;;;;;11.13;10.03;;;4.70;99.90;;;;;;5076269;28;20189;-64
2022/01/24 14:41:10;;;;;;;11.40;9.80;;;4.70;99.90;;;;;;5076703;28;20197;-64
2022/01/24 14:46:27;;;;;;;11.43;9.83;;;4.70;99.90;;;;;;5076639;28;20208;-63
2022/01/24 14:48:59;;;;;;;10.60;9.47;;;4.70;99.90;;;;;;5075084;28;20201;-64
2022/01/24 14:51:29;;;;;;;9.47;8.57;;;4.70;99.90;;;;;;5076604;28;20599;-64
2022/01/24 14:53:57;;;;;;;11.70;9.17;;;4.70;99.90;;;;;;5076642;28;20231;-64
2022/01/24 14:56:23;;;;;;;9.73;8.80;;;4.70;99.90;;;;;;5076701;28;20203;-65
2022/01/24 14:58:50;;;;;;;9.30;8.40;;;4.80;99.90;;;;;;5077078;28;20630;-64
2022/01/24 15:01:16;;;;;;;8.93;8.13;;;4.80;99.90;;;;;;5076599;28;20226;-64
2022/01/24 15:03:43;;;;;;;9.00;8.00;;;4.80;99.90;;;;;;5076472;28;20170;-64
2022/01/24 15:06:10;;;;;;;9.00;8.07;;;4.80;99.90;;;;;;5075110;28;20216;-64
2022/01/24 15:08:37;;;;;;;9.67;8.73;;;4.70;99.90;;;;;;5076391;28;20162;-65
2022/01/24 15:11:04;;;;;;;8.63;7.80;;;4.70;99.90;;;;;;5076398;28;20642;-64
2022/01/24 15:13:39;;;;;;;9.30;8.30;;;4.70;99.90;;;;;;5075029;28;20177;-64
2022/01/24 15:16:17;;;;;;;8.93;8.03;;;4.60;99.90;;;;;;5076724;28;20193;-64
2022/01/24 15:26:49;;;;;;;10.07;8.50;;;4.60;99.90;;;;;;5076150;28;20231;-64
2022/01/24 15:29:17;;;;;;;10.67;9.57;;;4.60;99.90;;;;;;5076414;28;20662;-64